sensor_id;sensor_type;location;lat;lon;timestamp;P1;durP1;ratioP1;P2;durP2;ratioP2
16478;SDS011;8350;52.316;10.530;2022-12-13T00:01:16;25.40;;;15.43;;
16478;SDS011;8350;52.316;10.530;2022-12-13T00:03:43;24.80;;;14.55;;
16478;SDS011;8350;52.316;10.530;2022-12-13T00:06:10;21.63;;;15.57;;
16478;SDS011;8350;52.316;10.530;2022-12-13T00:08:38;23.50;;;14.52;;
16478;SDS011;8350;52.316;10.530;2022-12-13T00:11:06;23.60;;;15.50;;
16478;SDS011;8350;52.316;10.530;2022-12-13T00:13:36;26.30;;;16.40;;
16478;SDS011;8350;52.316;10.530;2022-12-13T00:16:05;24.02;;;14.88;;
16478;SDS011;8350;52.316;10.530;2022-12-13T00:18:42;26.80;;;15.93;;
16478;SDS011;8350;52.316;10.530;2022-12-13T00:21:12;22.70;;;15.15;;
16478;SDS011;8350;52.316;10.530;2022-12-13T00:23:42;29.73;;;15.13;;
16478;SDS011;8350;52.316;10.530;2022-12-13T00:26:12;23.20;;;14.80;;
16478;SDS011;8350;52.316;10.530;2022-12-13T00:28:41;23.80;;;13.93;;
16478;SDS011;8350;52.316;10.530;2022-12-13T00:31:08;20.35;;;13.48;;
16478;SDS011;8350;52.316;10.530;2022-12-13T00:33:36;18.92;;;12.05;;
16478;SDS011;8350;52.316;10.530;2022-12-13T00:36:05;25.30;;;14.13;;
16478;SDS011;8350;52.316;10.530;2022-12-13T00:38:33;24.08;;;13.48;;
16478;SDS011;8350;52.316;10.530;2022-12-13T00:41:08;20.85;;;13.45;;
16478;SDS011;8350;52.316;10.530;2022-12-13T00:43:36;20.02;;;13.88;;
16478;SDS011;8350;52.316;10.530;2022-12-13T00:46:03;20.70;;;13.50;;
16478;SDS011;8350;52.316;10.530;2022-12-13T00:48:30;20.27;;;11.98;;
16478;SDS011;8350;52.316;10.530;2022-12-13T00:50:57;19.25;;;12.68;;
16478;SDS011;8350;52.316;10.530;2022-12-13T00:53:25;19.70;;;11.55;;
16478;SDS011;8350;52.316;10.530;2022-12-13T00:55:52;22.30;;;13.82;;
16478;SDS011;8350;52.316;10.530;2022-12-13T00:58:19;20.58;;;11.07;;
16478;SDS011;8350;52.316;10.530;2022-12-13T01:00:49;18.23;;;13.13;;
16478;SDS011;8350;52.316;10.530;2022-12-13T01:03:16;20.52;;;13.60;;
16478;SDS011;8350;52.316;10.530;2022-12-13T01:05:49;18.23;;;12.10;;
16478;SDS011;8350;52.316;10.530;2022-12-13T01:08:16;19.58;;;11.98;;
16478;SDS011;8350;52.316;10.530;2022-12-13T01:10:45;16.92;;;11.13;;
16478;SDS011;8350;52.316;10.530;2022-12-13T01:13:13;14.00;;;9.82;;
16478;SDS011;8350;52.316;10.530;2022-12-13T01:15:40;20.88;;;11.95;;
16478;SDS011;8350;52.316;10.530;2022-12-13T01:18:08;19.45;;;11.85;;
16478;SDS011;8350;52.316;10.530;2022-12-13T01:20:36;20.55;;;12.65;;
16478;SDS011;8350;52.316;10.530;2022-12-13T01:23:03;22.35;;;11.82;;
16478;SDS011;8350;52.316;10.530;2022-12-13T01:25:31;17.45;;;11.13;;
16478;SDS011;8350;52.316;10.530;2022-12-13T01:27:59;16.13;;;11.10;;
16478;SDS011;8350;52.316;10.530;2022-12-13T01:30:26;14.50;;;10.23;;
16478;SDS011;8350;52.316;10.530;2022-12-13T01:32:53;16.00;;;11.40;;
16478;SDS011;8350;52.316;10.530;2022-12-13T01:35:20;18.50;;;11.75;;
16478;SDS011;8350;52.316;10.530;2022-12-13T01:37:47;17.13;;;10.90;;
16478;SDS011;8350;52.316;10.530;2022-12-13T01:40:14;23.65;;;11.25;;
16478;SDS011;8350;52.316;10.530;2022-12-13T01:42:44;18.52;;;10.77;;
16478;SDS011;8350;52.316;10.530;2022-12-13T01:45:20;18.30;;;11.35;;
16478;SDS011;8350;52.316;10.530;2022-12-13T01:47:49;18.80;;;11.65;;
16478;SDS011;8350;52.316;10.530;2022-12-13T01:50:20;20.17;;;11.70;;
16478;SDS011;8350;52.316;10.530;2022-12-13T01:52:50;16.48;;;11.35;;
16478;SDS011;8350;52.316;10.530;2022-12-13T01:55:18;18.85;;;10.98;;
16478;SDS011;8350;52.316;10.530;2022-12-13T01:57:51;21.17;;;12.32;;
16478;SDS011;8350;52.316;10.530;2022-12-13T02:00:21;17.30;;;11.48;;
16478;SDS011;8350;52.316;10.530;2022-12-13T02:02:49;23.30;;;12.32;;
16478;SDS011;8350;52.316;10.530;2022-12-13T02:05:22;15.88;;;10.98;;
16478;SDS011;8350;52.316;10.530;2022-12-13T02:07:54;19.02;;;12.07;;
16478;SDS011;8350;52.316;10.530;2022-12-13T02:10:22;17.27;;;11.15;;
16478;SDS011;8350;52.316;10.530;2022-12-13T02:12:55;17.75;;;11.48;;
16478;SDS011;8350;52.316;10.530;2022-12-13T02:15:24;18.95;;;11.65;;
16478;SDS011;8350;52.316;10.530;2022-12-13T02:21:00;17.45;;;12.07;;
16478;SDS011;8350;52.316;10.530;2022-12-13T02:26:53;20.73;;;14.63;;
16478;SDS011;8350;52.316;10.530;2022-12-13T02:32:45;21.55;;;14.07;;
16478;SDS011;8350;52.316;10.530;2022-12-13T02:35:36;21.85;;;15.63;;
16478;SDS011;8350;52.316;10.530;2022-12-13T02:38:09;21.20;;;14.77;;
16478;SDS011;8350;52.316;10.530;2022-12-13T02:40:40;23.90;;;15.80;;
16478;SDS011;8350;52.316;10.530;2022-12-13T02:43:11;21.52;;;13.43;;
16478;SDS011;8350;52.316;10.530;2022-12-13T02:45:44;19.80;;;12.20;;
16478;SDS011;8350;52.316;10.530;2022-12-13T02:48:14;20.33;;;11.98;;
16478;SDS011;8350;52.316;10.530;2022-12-13T02:50:45;17.20;;;11.63;;
16478;SDS011;8350;52.316;10.530;2022-12-13T02:53:13;17.92;;;11.27;;
16478;SDS011;8350;52.316;10.530;2022-12-13T02:55:41;17.40;;;12.20;;
16478;SDS011;8350;52.316;10.530;2022-12-13T02:58:10;18.23;;;10.95;;
16478;SDS011;8350;52.316;10.530;2022-12-13T03:00:42;21.25;;;11.65;;
16478;SDS011;8350;52.316;10.530;2022-12-13T03:03:22;17.15;;;11.00;;
16478;SDS011;8350;52.316;10.530;2022-12-13T03:06:02;17.63;;;12.10;;
16478;SDS011;8350;52.316;10.530;2022-12-13T03:08:58;23.67;;;14.13;;
16478;SDS011;8350;52.316;10.530;2022-12-13T03:11:44;19.88;;;11.35;;
16478;SDS011;8350;52.316;10.530;2022-12-13T03:14:42;22.00;;;13.32;;
16478;SDS011;8350;52.316;10.530;2022-12-13T03:17:19;21.60;;;15.73;;
16478;SDS011;8350;52.316;10.530;2022-12-13T03:19:51;22.15;;;15.32;;
16478;SDS011;8350;52.316;10.530;2022-12-13T03:22:18;23.63;;;15.65;;
16478;SDS011;8350;52.316;10.530;2022-12-13T03:24:46;23.00;;;14.43;;
16478;SDS011;8350;52.316;10.530;2022-12-13T03:27:13;21.35;;;13.02;;
16478;SDS011;8350;52.316;10.530;2022-12-13T03:29:40;23.52;;;13.45;;
16478;SDS011;8350;52.316;10.530;2022-12-13T03:32:07;19.63;;;12.85;;
16478;SDS011;8350;52.316;10.530;2022-12-13T03:34:34;21.95;;;13.18;;
16478;SDS011;8350;52.316;10.530;2022-12-13T03:37:03;20.50;;;13.25;;
16478;SDS011;8350;52.316;10.530;2022-12-13T03:39:33;19.70;;;13.13;;
16478;SDS011;8350;52.316;10.530;2022-12-13T03:42:00;25.27;;;12.88;;
16478;SDS011;8350;52.316;10.530;2022-12-13T03:44:27;21.00;;;12.23;;
16478;SDS011;8350;52.316;10.530;2022-12-13T03:46:54;22.48;;;13.00;;
16478;SDS011;8350;52.316;10.530;2022-12-13T03:49:23;19.08;;;11.90;;
16478;SDS011;8350;52.316;10.530;2022-12-13T03:51:50;18.83;;;11.32;;
16478;SDS011;8350;52.316;10.530;2022-12-13T03:54:18;20.23;;;12.13;;
16478;SDS011;8350;52.316;10.530;2022-12-13T03:56:46;18.00;;;10.85;;
16478;SDS011;8350;52.316;10.530;2022-12-13T03:59:13;18.70;;;11.57;;
16478;SDS011;8350;52.316;10.530;2022-12-13T04:01:43;17.50;;;10.82;;
16478;SDS011;8350;52.316;10.530;2022-12-13T04:04:10;19.88;;;12.15;;
16478;SDS011;8350;52.316;10.530;2022-12-13T04:06:37;17.77;;;11.57;;
16478;SDS011;8350;52.316;10.530;2022-12-13T04:09:04;23.60;;;13.13;;
16478;SDS011;8350;52.316;10.530;2022-12-13T04:11:32;17.10;;;11.60;;
16478;SDS011;8350;52.316;10.530;2022-12-13T04:14:17;20.33;;;12.63;;
16478;SDS011;8350;52.316;10.530;2022-12-13T04:16:44;21.98;;;13.20;;
16478;SDS011;8350;52.316;10.530;2022-12-13T04:19:11;21.35;;;11.85;;
16478;SDS011;8350;52.316;10.530;2022-12-13T04:21:38;20.45;;;12.77;;
16478;SDS011;8350;52.316;10.530;2022-12-13T04:24:07;19.13;;;12.00;;
16478;SDS011;8350;52.316;10.530;2022-12-13T04:26:36;23.05;;;12.27;;
16478;SDS011;8350;52.316;10.530;2022-12-13T04:29:03;18.58;;;11.05;;
16478;SDS011;8350;52.316;10.530;2022-12-13T04:31:30;19.98;;;10.88;;
16478;SDS011;8350;52.316;10.530;2022-12-13T04:33:57;17.50;;;11.15;;
16478;SDS011;8350;52.316;10.530;2022-12-13T04:36:24;20.25;;;11.68;;
16478;SDS011;8350;52.316;10.530;2022-12-13T04:38:51;18.27;;;11.43;;
16478;SDS011;8350;52.316;10.530;2022-12-13T04:41:20;18.67;;;11.30;;
16478;SDS011;8350;52.316;10.530;2022-12-13T04:43:50;17.80;;;10.38;;
16478;SDS011;8350;52.316;10.530;2022-12-13T04:46:18;18.52;;;11.05;;
16478;SDS011;8350;52.316;10.530;2022-12-13T04:48:45;15.25;;;9.20;;
16478;SDS011;8350;52.316;10.530;2022-12-13T04:51:13;14.90;;;9.73;;
16478;SDS011;8350;52.316;10.530;2022-12-13T04:53:41;17.75;;;10.30;;
16478;SDS011;8350;52.316;10.530;2022-12-13T04:56:09;19.45;;;10.60;;
16478;SDS011;8350;52.316;10.530;2022-12-13T04:58:39;16.60;;;9.80;;
16478;SDS011;8350;52.316;10.530;2022-12-13T05:01:08;15.40;;;9.40;;
16478;SDS011;8350;52.316;10.530;2022-12-13T05:03:36;14.18;;;9.27;;
16478;SDS011;8350;52.316;10.530;2022-12-13T05:06:04;14.57;;;10.35;;
16478;SDS011;8350;52.316;10.530;2022-12-13T05:08:31;17.23;;;10.25;;
16478;SDS011;8350;52.316;10.530;2022-12-13T05:10:59;12.52;;;9.30;;
16478;SDS011;8350;52.316;10.530;2022-12-13T05:13:26;16.02;;;9.10;;
16478;SDS011;8350;52.316;10.530;2022-12-13T05:15:57;16.65;;;9.25;;
16478;SDS011;8350;52.316;10.530;2022-12-13T05:18:26;15.75;;;9.50;;
16478;SDS011;8350;52.316;10.530;2022-12-13T05:20:54;13.07;;;8.25;;
16478;SDS011;8350;52.316;10.530;2022-12-13T05:23:22;17.75;;;11.43;;
16478;SDS011;8350;52.316;10.530;2022-12-13T05:25:50;19.48;;;11.43;;
16478;SDS011;8350;52.316;10.530;2022-12-13T05:28:20;16.75;;;11.00;;
16478;SDS011;8350;52.316;10.530;2022-12-13T05:30:49;14.60;;;10.35;;
16478;SDS011;8350;52.316;10.530;2022-12-13T05:33:16;19.58;;;10.43;;
16478;SDS011;8350;52.316;10.530;2022-12-13T05:35:45;20.27;;;11.80;;
16478;SDS011;8350;52.316;10.530;2022-12-13T05:38:12;20.30;;;12.48;;
16478;SDS011;8350;52.316;10.530;2022-12-13T05:40:39;23.23;;;11.50;;
16478;SDS011;8350;52.316;10.530;2022-12-13T05:43:06;16.55;;;9.93;;
16478;SDS011;8350;52.316;10.530;2022-12-13T05:45:34;16.98;;;11.55;;
16478;SDS011;8350;52.316;10.530;2022-12-13T05:48:01;14.32;;;10.27;;
16478;SDS011;8350;52.316;10.530;2022-12-13T05:50:28;18.33;;;11.00;;
16478;SDS011;8350;52.316;10.530;2022-12-13T05:52:57;15.55;;;10.43;;
16478;SDS011;8350;52.316;10.530;2022-12-13T05:55:24;22.25;;;12.52;;
16478;SDS011;8350;52.316;10.530;2022-12-13T05:57:51;18.23;;;10.38;;
16478;SDS011;8350;52.316;10.530;2022-12-13T06:00:18;15.80;;;10.90;;
16478;SDS011;8350;52.316;10.530;2022-12-13T06:02:45;17.40;;;10.93;;
16478;SDS011;8350;52.316;10.530;2022-12-13T06:05:12;16.90;;;12.10;;
16478;SDS011;8350;52.316;10.530;2022-12-13T06:07:39;19.65;;;10.77;;
16478;SDS011;8350;52.316;10.530;2022-12-13T06:10:08;17.38;;;10.38;;
16478;SDS011;8350;52.316;10.530;2022-12-13T06:12:35;17.58;;;10.07;;
16478;SDS011;8350;52.316;10.530;2022-12-13T06:15:03;14.20;;;10.00;;
16478;SDS011;8350;52.316;10.530;2022-12-13T06:17:31;17.15;;;10.27;;
16478;SDS011;8350;52.316;10.530;2022-12-13T06:19:58;18.73;;;10.02;;
16478;SDS011;8350;52.316;10.530;2022-12-13T06:22:25;17.92;;;11.07;;
16478;SDS011;8350;52.316;10.530;2022-12-13T06:24:53;18.88;;;11.30;;
16478;SDS011;8350;52.316;10.530;2022-12-13T06:27:28;21.55;;;12.00;;
16478;SDS011;8350;52.316;10.530;2022-12-13T06:29:58;16.55;;;9.88;;
16478;SDS011;8350;52.316;10.530;2022-12-13T06:32:25;20.30;;;11.90;;
16478;SDS011;8350;52.316;10.530;2022-12-13T06:34:52;22.33;;;13.63;;
16478;SDS011;8350;52.316;10.530;2022-12-13T06:37:19;21.38;;;13.50;;
16478;SDS011;8350;52.316;10.530;2022-12-13T06:39:46;22.70;;;14.75;;
16478;SDS011;8350;52.316;10.530;2022-12-13T06:42:14;17.50;;;12.82;;
16478;SDS011;8350;52.316;10.530;2022-12-13T06:44:43;23.58;;;13.82;;
16478;SDS011;8350;52.316;10.530;2022-12-13T06:47:10;22.13;;;13.27;;
16478;SDS011;8350;52.316;10.530;2022-12-13T06:49:41;22.88;;;14.50;;
16478;SDS011;8350;52.316;10.530;2022-12-13T06:52:08;21.73;;;15.07;;
16478;SDS011;8350;52.316;10.530;2022-12-13T06:54:37;21.83;;;14.35;;
16478;SDS011;8350;52.316;10.530;2022-12-13T06:57:04;25.85;;;14.38;;
16478;SDS011;8350;52.316;10.530;2022-12-13T06:59:33;19.48;;;12.95;;
16478;SDS011;8350;52.316;10.530;2022-12-13T07:02:01;23.70;;;15.35;;
16478;SDS011;8350;52.316;10.530;2022-12-13T07:04:28;22.05;;;12.20;;
16478;SDS011;8350;52.316;10.530;2022-12-13T07:06:55;22.75;;;14.70;;
16478;SDS011;8350;52.316;10.530;2022-12-13T07:09:22;24.85;;;15.52;;
16478;SDS011;8350;52.316;10.530;2022-12-13T07:11:49;24.02;;;15.93;;
16478;SDS011;8350;52.316;10.530;2022-12-13T07:14:16;23.50;;;15.70;;
16478;SDS011;8350;52.316;10.530;2022-12-13T07:16:43;25.10;;;18.33;;
16478;SDS011;8350;52.316;10.530;2022-12-13T07:19:12;27.63;;;18.55;;
16478;SDS011;8350;52.316;10.530;2022-12-13T07:21:39;27.70;;;16.42;;
16478;SDS011;8350;52.316;10.530;2022-12-13T07:24:06;22.02;;;16.55;;
16478;SDS011;8350;52.316;10.530;2022-12-13T07:26:33;27.83;;;17.40;;
16478;SDS011;8350;52.316;10.530;2022-12-13T07:29:03;24.15;;;16.02;;
16478;SDS011;8350;52.316;10.530;2022-12-13T07:31:33;24.48;;;14.52;;
16478;SDS011;8350;52.316;10.530;2022-12-13T07:34:00;25.27;;;14.73;;
16478;SDS011;8350;52.316;10.530;2022-12-13T07:36:29;23.77;;;13.82;;
16478;SDS011;8350;52.316;10.530;2022-12-13T07:38:56;30.42;;;17.20;;
16478;SDS011;8350;52.316;10.530;2022-12-13T07:41:24;19.63;;;13.20;;
16478;SDS011;8350;52.316;10.530;2022-12-13T07:43:52;18.58;;;11.50;;
16478;SDS011;8350;52.316;10.530;2022-12-13T07:46:20;20.92;;;12.77;;
16478;SDS011;8350;52.316;10.530;2022-12-13T07:48:50;16.23;;;11.15;;
16478;SDS011;8350;52.316;10.530;2022-12-13T07:51:23;15.68;;;11.38;;
16478;SDS011;8350;52.316;10.530;2022-12-13T07:53:52;16.95;;;10.15;;
16478;SDS011;8350;52.316;10.530;2022-12-13T07:56:22;13.85;;;10.65;;
16478;SDS011;8350;52.316;10.530;2022-12-13T07:58:50;19.33;;;11.68;;
16478;SDS011;8350;52.316;10.530;2022-12-13T08:01:17;16.98;;;10.82;;
16478;SDS011;8350;52.316;10.530;2022-12-13T08:03:45;16.65;;;11.70;;
16478;SDS011;8350;52.316;10.530;2022-12-13T08:06:13;19.67;;;13.25;;
16478;SDS011;8350;52.316;10.530;2022-12-13T08:08:40;16.70;;;10.23;;
16478;SDS011;8350;52.316;10.530;2022-12-13T08:11:09;17.25;;;10.40;;
16478;SDS011;8350;52.316;10.530;2022-12-13T08:13:39;18.85;;;10.70;;
16478;SDS011;8350;52.316;10.530;2022-12-13T08:16:07;16.08;;;10.55;;
16478;SDS011;8350;52.316;10.530;2022-12-13T08:18:36;13.48;;;10.23;;
16478;SDS011;8350;52.316;10.530;2022-12-13T08:21:04;13.70;;;9.50;;
16478;SDS011;8350;52.316;10.530;2022-12-13T08:23:33;16.08;;;10.23;;
16478;SDS011;8350;52.316;10.530;2022-12-13T08:26:01;19.50;;;11.82;;
16478;SDS011;8350;52.316;10.530;2022-12-13T08:28:31;16.83;;;9.63;;
16478;SDS011;8350;52.316;10.530;2022-12-13T08:31:07;15.55;;;10.82;;
16478;SDS011;8350;52.316;10.530;2022-12-13T08:33:37;15.50;;;9.65;;
16478;SDS011;8350;52.316;10.530;2022-12-13T08:36:08;18.83;;;12.88;;
16478;SDS011;8350;52.316;10.530;2022-12-13T08:38:37;27.02;;;17.73;;
16478;SDS011;8350;52.316;10.530;2022-12-13T08:41:04;23.23;;;14.80;;
16478;SDS011;8350;52.316;10.530;2022-12-13T08:43:33;19.30;;;13.32;;
16478;SDS011;8350;52.316;10.530;2022-12-13T08:46:00;20.73;;;12.95;;
16478;SDS011;8350;52.316;10.530;2022-12-13T08:48:28;19.55;;;13.60;;
16478;SDS011;8350;52.316;10.530;2022-12-13T08:50:58;20.63;;;13.00;;
16478;SDS011;8350;52.316;10.530;2022-12-13T08:53:26;25.63;;;12.73;;
16478;SDS011;8350;52.316;10.530;2022-12-13T08:55:53;15.23;;;10.55;;
16478;SDS011;8350;52.316;10.530;2022-12-13T08:58:25;18.05;;;10.45;;
16478;SDS011;8350;52.316;10.530;2022-12-13T09:00:54;17.10;;;11.30;;
16478;SDS011;8350;52.316;10.530;2022-12-13T09:03:21;22.05;;;10.98;;
16478;SDS011;8350;52.316;10.530;2022-12-13T09:05:48;16.27;;;10.68;;
16478;SDS011;8350;52.316;10.530;2022-12-13T09:08:16;19.17;;;11.38;;
16478;SDS011;8350;52.316;10.530;2022-12-13T09:10:43;17.58;;;10.75;;
16478;SDS011;8350;52.316;10.530;2022-12-13T09:13:11;18.25;;;11.07;;
16478;SDS011;8350;52.316;10.530;2022-12-13T09:15:38;18.15;;;11.20;;
16478;SDS011;8350;52.316;10.530;2022-12-13T09:18:07;20.35;;;12.23;;
16478;SDS011;8350;52.316;10.530;2022-12-13T09:20:34;16.70;;;11.43;;
16478;SDS011;8350;52.316;10.530;2022-12-13T09:23:06;16.75;;;12.15;;
16478;SDS011;8350;52.316;10.530;2022-12-13T09:25:34;20.17;;;13.45;;
16478;SDS011;8350;52.316;10.530;2022-12-13T09:28:01;17.13;;;11.23;;
16478;SDS011;8350;52.316;10.530;2022-12-13T09:30:34;16.33;;;10.40;;
16478;SDS011;8350;52.316;10.530;2022-12-13T09:33:02;19.55;;;12.82;;
16478;SDS011;8350;52.316;10.530;2022-12-13T09:35:31;23.67;;;14.40;;
16478;SDS011;8350;52.316;10.530;2022-12-13T09:37:58;20.48;;;12.43;;
16478;SDS011;8350;52.316;10.530;2022-12-13T09:40:25;21.20;;;12.77;;
16478;SDS011;8350;52.316;10.530;2022-12-13T09:42:54;19.40;;;12.10;;
16478;SDS011;8350;52.316;10.530;2022-12-13T09:45:22;16.25;;;11.38;;
16478;SDS011;8350;52.316;10.530;2022-12-13T09:47:50;19.25;;;12.77;;
16478;SDS011;8350;52.316;10.530;2022-12-13T09:50:21;20.60;;;13.13;;
16478;SDS011;8350;52.316;10.530;2022-12-13T09:52:53;17.15;;;11.38;;
16478;SDS011;8350;52.316;10.530;2022-12-13T09:55:21;17.30;;;10.98;;
16478;SDS011;8350;52.316;10.530;2022-12-13T09:57:50;21.75;;;12.98;;
16478;SDS011;8350;52.316;10.530;2022-12-13T10:00:19;16.90;;;11.38;;
16478;SDS011;8350;52.316;10.530;2022-12-13T10:02:48;17.73;;;11.02;;
16478;SDS011;8350;52.316;10.530;2022-12-13T10:05:24;18.63;;;11.75;;
16478;SDS011;8350;52.316;10.530;2022-12-13T10:07:56;17.90;;;10.88;;
16478;SDS011;8350;52.316;10.530;2022-12-13T10:10:25;16.30;;;10.73;;
16478;SDS011;8350;52.316;10.530;2022-12-13T10:12:54;18.95;;;11.30;;
16478;SDS011;8350;52.316;10.530;2022-12-13T10:15:24;15.32;;;10.57;;
16478;SDS011;8350;52.316;10.530;2022-12-13T10:17:53;19.42;;;11.05;;
16478;SDS011;8350;52.316;10.530;2022-12-13T10:20:20;20.90;;;11.27;;
16478;SDS011;8350;52.316;10.530;2022-12-13T10:22:49;15.95;;;9.85;;
16478;SDS011;8350;52.316;10.530;2022-12-13T10:25:26;15.98;;;9.85;;
16478;SDS011;8350;52.316;10.530;2022-12-13T10:28:11;13.07;;;8.73;;
16478;SDS011;8350;52.316;10.530;2022-12-13T10:30:41;13.75;;;9.48;;
16478;SDS011;8350;52.316;10.530;2022-12-13T10:33:17;16.35;;;9.80;;
16478;SDS011;8350;52.316;10.530;2022-12-13T10:36:00;13.80;;;8.38;;
16478;SDS011;8350;52.316;10.530;2022-12-13T10:38:33;18.15;;;9.98;;
16478;SDS011;8350;52.316;10.530;2022-12-13T10:44:08;16.40;;;10.38;;
16478;SDS011;8350;52.316;10.530;2022-12-13T10:46:50;14.73;;;9.82;;
16478;SDS011;8350;52.316;10.530;2022-12-13T10:49:39;15.80;;;9.20;;
16478;SDS011;8350;52.316;10.530;2022-12-13T10:52:22;13.50;;;8.85;;
16478;SDS011;8350;52.316;10.530;2022-12-13T10:54:52;13.02;;;8.52;;
16478;SDS011;8350;52.316;10.530;2022-12-13T10:57:21;12.07;;;8.75;;
16478;SDS011;8350;52.316;10.530;2022-12-13T10:59:49;15.77;;;9.13;;
16478;SDS011;8350;52.316;10.530;2022-12-13T11:02:27;13.65;;;8.77;;
16478;SDS011;8350;52.316;10.530;2022-12-13T11:04:56;14.25;;;8.10;;
16478;SDS011;8350;52.316;10.530;2022-12-13T11:07:24;15.40;;;8.45;;
16478;SDS011;8350;52.316;10.530;2022-12-13T11:09:54;16.00;;;8.85;;
16478;SDS011;8350;52.316;10.530;2022-12-13T11:12:24;14.45;;;9.05;;
16478;SDS011;8350;52.316;10.530;2022-12-13T11:14:54;13.88;;;9.10;;
16478;SDS011;8350;52.316;10.530;2022-12-13T11:17:23;12.20;;;8.63;;
16478;SDS011;8350;52.316;10.530;2022-12-13T11:19:53;11.60;;;8.27;;
16478;SDS011;8350;52.316;10.530;2022-12-13T11:22:22;13.82;;;8.57;;
16478;SDS011;8350;52.316;10.530;2022-12-13T11:24:54;14.15;;;8.43;;
16478;SDS011;8350;52.316;10.530;2022-12-13T11:27:32;12.82;;;9.05;;
16478;SDS011;8350;52.316;10.530;2022-12-13T11:30:23;14.27;;;9.23;;
16478;SDS011;8350;52.316;10.530;2022-12-13T11:32:59;15.43;;;8.63;;
16478;SDS011;8350;52.316;10.530;2022-12-13T11:35:42;13.15;;;7.95;;
16478;SDS011;8350;52.316;10.530;2022-12-13T11:38:22;12.02;;;8.35;;
16478;SDS011;8350;52.316;10.530;2022-12-13T11:40:54;13.93;;;8.20;;
16478;SDS011;8350;52.316;10.530;2022-12-13T11:43:28;12.93;;;7.72;;
16478;SDS011;8350;52.316;10.530;2022-12-13T11:46:01;16.02;;;8.75;;
16478;SDS011;8350;52.316;10.530;2022-12-13T11:48:35;14.00;;;9.00;;
16478;SDS011;8350;52.316;10.530;2022-12-13T11:51:08;12.95;;;8.50;;
16478;SDS011;8350;52.316;10.530;2022-12-13T11:53:42;12.48;;;8.27;;
16478;SDS011;8350;52.316;10.530;2022-12-13T11:56:16;14.20;;;8.45;;
16478;SDS011;8350;52.316;10.530;2022-12-13T11:58:53;14.10;;;9.48;;
16478;SDS011;8350;52.316;10.530;2022-12-13T12:01:32;15.85;;;8.68;;
16478;SDS011;8350;52.316;10.530;2022-12-13T12:04:08;12.43;;;9.45;;
16478;SDS011;8350;52.316;10.530;2022-12-13T12:06:47;11.52;;;8.70;;
16478;SDS011;8350;52.316;10.530;2022-12-13T12:09:18;13.13;;;8.68;;
16478;SDS011;8350;52.316;10.530;2022-12-13T12:11:50;14.85;;;8.80;;
16478;SDS011;8350;52.316;10.530;2022-12-13T12:14:32;16.63;;;10.13;;
16478;SDS011;8350;52.316;10.530;2022-12-13T12:17:03;17.65;;;9.25;;
16478;SDS011;8350;52.316;10.530;2022-12-13T12:19:33;13.73;;;10.13;;
16478;SDS011;8350;52.316;10.530;2022-12-13T12:22:06;14.07;;;9.25;;
16478;SDS011;8350;52.316;10.530;2022-12-13T12:24:52;14.60;;;10.15;;
16478;SDS011;8350;52.316;10.530;2022-12-13T12:27:35;13.65;;;9.65;;
16478;SDS011;8350;52.316;10.530;2022-12-13T12:30:11;13.95;;;9.52;;
16478;SDS011;8350;52.316;10.530;2022-12-13T12:32:50;12.32;;;9.30;;
16478;SDS011;8350;52.316;10.530;2022-12-13T12:35:32;11.32;;;9.20;;
16478;SDS011;8350;52.316;10.530;2022-12-13T12:38:33;15.23;;;9.65;;
16478;SDS011;8350;52.316;10.530;2022-12-13T12:41:18;12.30;;;8.88;;
16478;SDS011;8350;52.316;10.530;2022-12-13T12:43:53;15.90;;;10.38;;
16478;SDS011;8350;52.316;10.530;2022-12-13T12:46:33;18.27;;;9.63;;
16478;SDS011;8350;52.316;10.530;2022-12-13T12:52:03;15.55;;;10.63;;
16478;SDS011;8350;52.316;10.530;2022-12-13T12:54:38;14.02;;;9.73;;
16478;SDS011;8350;52.316;10.530;2022-12-13T12:57:14;13.82;;;9.02;;
16478;SDS011;8350;52.316;10.530;2022-12-13T12:59:49;15.07;;;10.30;;
16478;SDS011;8350;52.316;10.530;2022-12-13T13:02:29;14.68;;;9.60;;
16478;SDS011;8350;52.316;10.530;2022-12-13T13:05:06;12.75;;;9.88;;
16478;SDS011;8350;52.316;10.530;2022-12-13T13:07:41;14.05;;;9.73;;
16478;SDS011;8350;52.316;10.530;2022-12-13T13:10:12;14.18;;;10.23;;
16478;SDS011;8350;52.316;10.530;2022-12-13T13:12:40;14.30;;;10.20;;
16478;SDS011;8350;52.316;10.530;2022-12-13T13:21:25;13.32;;;9.15;;
16478;SDS011;8350;52.316;10.530;2022-12-13T13:24:13;15.05;;;10.35;;
16478;SDS011;8350;52.316;10.530;2022-12-13T13:26:43;16.05;;;10.27;;
16478;SDS011;8350;52.316;10.530;2022-12-13T13:32:27;13.25;;;10.75;;
16478;SDS011;8350;52.316;10.530;2022-12-13T13:37:59;14.50;;;9.73;;
16478;SDS011;8350;52.316;10.530;2022-12-13T13:40:29;13.25;;;10.25;;
16478;SDS011;8350;52.316;10.530;2022-12-13T13:43:12;14.32;;;9.77;;
16478;SDS011;8350;52.316;10.530;2022-12-13T13:45:57;17.38;;;10.63;;
16478;SDS011;8350;52.316;10.530;2022-12-13T13:48:36;13.98;;;10.55;;
16478;SDS011;8350;52.316;10.530;2022-12-13T13:51:35;17.42;;;10.70;;
16478;SDS011;8350;52.316;10.530;2022-12-13T14:00:33;12.32;;;9.57;;
16478;SDS011;8350;52.316;10.530;2022-12-13T14:06:24;15.93;;;10.57;;
16478;SDS011;8350;52.316;10.530;2022-12-13T14:09:25;14.85;;;10.02;;
16478;SDS011;8350;52.316;10.530;2022-12-13T14:15:38;15.63;;;10.85;;
16478;SDS011;8350;52.316;10.530;2022-12-13T14:21:49;16.73;;;11.65;;
16478;SDS011;8350;52.316;10.530;2022-12-13T14:24:26;15.25;;;10.32;;
16478;SDS011;8350;52.316;10.530;2022-12-13T14:27:05;14.40;;;10.43;;
16478;SDS011;8350;52.316;10.530;2022-12-13T14:29:43;17.05;;;11.07;;
16478;SDS011;8350;52.316;10.530;2022-12-13T14:32:16;15.30;;;11.07;;
16478;SDS011;8350;52.316;10.530;2022-12-13T14:34:49;15.07;;;11.73;;
16478;SDS011;8350;52.316;10.530;2022-12-13T14:37:19;18.00;;;11.63;;
16478;SDS011;8350;52.316;10.530;2022-12-13T14:39:54;14.82;;;11.00;;
16478;SDS011;8350;52.316;10.530;2022-12-13T14:42:22;18.17;;;11.88;;
16478;SDS011;8350;52.316;10.530;2022-12-13T14:45:13;20.65;;;12.93;;
16478;SDS011;8350;52.316;10.530;2022-12-13T14:47:41;19.00;;;13.07;;
16478;SDS011;8350;52.316;10.530;2022-12-13T14:50:10;19.67;;;13.40;;
16478;SDS011;8350;52.316;10.530;2022-12-13T14:52:42;19.48;;;12.80;;
16478;SDS011;8350;52.316;10.530;2022-12-13T14:55:19;15.98;;;11.55;;
16478;SDS011;8350;52.316;10.530;2022-12-13T14:57:52;19.70;;;12.38;;
16478;SDS011;8350;52.316;10.530;2022-12-13T15:00:23;17.05;;;11.65;;
16478;SDS011;8350;52.316;10.530;2022-12-13T15:02:53;17.77;;;11.70;;
16478;SDS011;8350;52.316;10.530;2022-12-13T15:05:25;19.75;;;12.82;;
16478;SDS011;8350;52.316;10.530;2022-12-13T15:07:53;17.45;;;13.15;;
16478;SDS011;8350;52.316;10.530;2022-12-13T15:10:23;16.63;;;12.38;;
16478;SDS011;8350;52.316;10.530;2022-12-13T15:12:55;16.45;;;12.55;;
16478;SDS011;8350;52.316;10.530;2022-12-13T15:15:26;17.90;;;14.23;;
16478;SDS011;8350;52.316;10.530;2022-12-13T15:20:50;19.30;;;13.10;;
16478;SDS011;8350;52.316;10.530;2022-12-13T15:23:20;17.02;;;12.27;;
16478;SDS011;8350;52.316;10.530;2022-12-13T15:25:54;16.50;;;12.10;;
16478;SDS011;8350;52.316;10.530;2022-12-13T15:28:25;17.23;;;12.10;;
16478;SDS011;8350;52.316;10.530;2022-12-13T15:30:55;19.23;;;14.23;;
16478;SDS011;8350;52.316;10.530;2022-12-13T15:33:24;20.52;;;14.80;;